createdAt,value
2019-01-19T00:02:46.097Z,89.28
2019-01-19T00:08:27.207Z,88.87
2019-01-19T00:13:53.256Z,88.55
2019-01-19T00:19:40.614Z,88.85
2019-01-19T00:25:38.182Z,89.06
2019-01-19T00:31:00.229Z,88.77
2019-01-19T00:36:28.173Z,89.29
2019-01-19T00:41:56.414Z,89.30
2019-01-19T00:47:18.703Z,89.73
2019-01-19T00:52:45.865Z,89.14
2019-01-19T00:58:33.044Z,89.48
2019-01-19T01:04:02.094Z,89.48
2019-01-19T01:09:48.809Z,88.93
2019-01-19T01:15:42.212Z,89.36
2019-01-19T01:20:58.278Z,89.41
2019-01-19T01:26:34.240Z,89.20
2019-01-19T01:32:07.895Z,89.13
2019-01-19T01:37:27.605Z,89.22
2019-01-19T01:43:15.636Z,89.08
2019-01-19T01:48:56.363Z,89.02
2019-01-19T01:54:41.606Z,89.12
2019-01-19T02:00:15.585Z,88.97
2019-01-19T02:06:04.623Z,88.87
2019-01-19T02:11:56.068Z,88.83
2019-01-19T02:17:38.886Z,89.28
2019-01-19T02:23:23.687Z,89.02
2019-01-19T02:28:55.187Z,89.07
2019-01-19T02:34:31.913Z,89.40
2019-01-19T02:40:10.116Z,89.94
2019-01-19T02:45:54.340Z,89.60
2019-01-19T02:51:15.946Z,89.32
2019-01-19T02:56:59.274Z,88.45
2019-01-19T03:02:33.257Z,88.19
2019-01-19T03:08:08.423Z,88.43
2019-01-19T03:13:45.388Z,88.49
2019-01-19T03:19:27.304Z,88.71
2019-01-19T03:24:55.533Z,88.64
2019-01-19T03:30:30.284Z,88.50
2019-01-19T03:36:26.149Z,88.38
2019-01-19T03:42:03.550Z,88.40
2019-01-19T03:47:40.138Z,88.56
2019-01-19T03:53:08.997Z,89.24
2019-01-19T03:58:32.269Z,88.81
2019-01-19T04:04:00.166Z,88.81
2019-01-19T04:09:32.588Z,88.67
2019-01-19T04:15:35.976Z,88.54
2019-01-19T04:21:14.502Z,88.48
2019-01-19T04:26:33.376Z,89.25
2019-01-19T04:31:47.532Z,88.76
2019-01-19T04:36:55.749Z,88.76
2019-01-19T04:42:05.449Z,89.00
2019-01-19T04:47:12.727Z,88.64
2019-01-19T04:52:24.102Z,89.92
2019-01-19T04:57:33.011Z,89.54
2019-01-19T05:02:42.790Z,90.08
2019-01-19T05:07:54.279Z,89.81
2019-01-19T05:13:02.322Z,89.59
2019-01-19T05:18:13.377Z,90.16
2019-01-19T05:25:24.438Z,90.09
2019-01-19T05:30:33.784Z,89.16
2019-01-19T05:35:44.496Z,89.16
2019-01-19T05:46:25.532Z,90.12
2019-01-19T05:51:35.594Z,90.64
2019-01-19T05:56:47.577Z,90.64
2019-01-19T06:02:01.867Z,90.95
2019-01-19T06:07:12.583Z,91.05
2019-01-19T06:12:20.214Z,91.16
2019-01-19T06:17:31.415Z,90.76
2019-01-19T06:22:44.933Z,90.71
2019-01-19T06:27:59.240Z,91.22
2019-01-19T06:33:08.340Z,90.71
2019-01-19T06:38:16.747Z,90.40
2019-01-19T06:43:27.416Z,90.47
2019-01-19T06:48:35.763Z,90.44
2019-01-19T06:53:43.501Z,90.91
2019-01-19T06:58:55.974Z,90.50
2019-01-19T07:04:06.117Z,90.50
2019-01-19T07:09:13.869Z,90.71
2019-01-19T07:14:23.151Z,90.62
2019-01-19T07:19:35.337Z,90.68
2019-01-19T07:24:42.058Z,90.75
2019-01-19T07:29:52.245Z,90.74
2019-01-19T07:34:59.242Z,90.83
2019-01-19T07:40:09.340Z,90.37
2019-01-19T07:45:15.023Z,90.55
2019-01-19T07:50:23.454Z,90.23
2019-01-19T07:55:35.942Z,89.99
2019-01-19T08:00:42.866Z,90.03
2019-01-19T08:05:54.469Z,89.83
2019-01-19T08:11:04.838Z,90.07
2019-01-19T08:16:11.976Z,89.83
2019-01-19T08:21:20.870Z,89.45
2019-01-19T08:26:30.414Z,89.28
2019-01-19T08:31:41.190Z,89.29
2019-01-19T08:36:51.845Z,88.80
2019-01-19T08:42:03.397Z,88.23
2019-01-19T08:47:11.792Z,88.07
2019-01-19T08:52:24.287Z,87.69
2019-01-19T08:57:32.649Z,86.54
2019-01-19T09:02:41.287Z,86.15
2019-01-19T09:07:51.594Z,84.21
2019-01-19T09:13:03.149Z,83.50
2019-01-19T09:18:12.004Z,83.15
2019-01-19T09:23:28.038Z,82.66
2019-01-19T09:28:39.080Z,81.90
2019-01-19T09:33:54.467Z,80.88
2019-01-19T09:39:01.028Z,80.24
2019-01-19T09:44:09.885Z,76.55
2019-01-19T09:49:18.321Z,75.75
2019-01-19T09:54:27.370Z,75.27
2019-01-19T09:59:36.205Z,74.80
2019-01-19T10:04:46.488Z,75.34
2019-01-19T10:09:54.084Z,73.22
2019-01-19T10:15:02.307Z,73.49
2019-01-19T10:20:12.843Z,70.49
2019-01-19T10:25:25.352Z,69.28
2019-01-19T10:30:36.195Z,66.23
2019-01-19T10:35:46.691Z,68.16
2019-01-19T10:40:56.028Z,66.86
2019-01-19T10:46:07.800Z,66.48
2019-01-19T10:51:18.029Z,65.88
2019-01-19T10:56:26.913Z,66.40
2019-01-19T11:01:35.835Z,65.98
2019-01-19T11:06:43.139Z,66.29
2019-01-19T11:11:50.424Z,65.70
2019-01-19T11:17:02.126Z,65.69
2019-01-19T11:22:12.067Z,64.36
2019-01-19T11:27:18.815Z,62.77
2019-01-19T11:32:29.117Z,60.98
2019-01-19T11:37:37.605Z,59.09
2019-01-19T11:42:47.429Z,59.08
2019-01-19T11:47:59.908Z,56.57
2019-01-19T11:53:11.010Z,56.27
2019-01-19T11:58:19.875Z,55.19
2019-01-19T12:03:31.490Z,54.10
2019-01-19T12:08:40.429Z,54.55
2019-01-19T12:13:53.321Z,54.59
2019-01-19T12:19:00.566Z,53.67
2019-01-19T12:24:14.785Z,55.11
2019-01-19T12:29:27.857Z,54.51
2019-01-19T12:34:35.763Z,54.06
2019-01-19T12:39:44.879Z,56.03
2019-01-19T12:44:51.636Z,55.59
2019-01-19T12:49:59.836Z,54.14
2019-01-19T12:55:06.449Z,53.33
2019-01-19T13:00:18.083Z,52.04
2019-01-19T13:05:30.961Z,53.81
2019-01-19T13:10:44.076Z,50.93
2019-01-19T13:16:31.980Z,51.05
2019-01-19T13:22:05.536Z,51.28
2019-01-19T13:27:43.531Z,50.15
2019-01-19T13:33:22.395Z,52.59
2019-01-19T13:39:05.600Z,53.34
2019-01-19T13:44:49.089Z,56.07
2019-01-19T13:50:32.051Z,55.61
2019-01-19T13:56:05.795Z,55.51
2019-01-19T14:01:30.787Z,55.47
2019-01-19T14:07:17.186Z,55.50
2019-01-19T14:13:12.448Z,54.08
2019-01-19T14:19:07.746Z,54.15
2019-01-19T14:24:51.459Z,55.18
2019-01-19T14:30:18.694Z,57.40
2019-01-19T14:36:16.962Z,58.02
2019-01-19T14:42:10.376Z,58.61
2019-01-19T14:47:49.447Z,61.38
2019-01-19T14:53:24.451Z,61.86
2019-01-19T14:59:04.065Z,63.12
2019-01-19T15:04:45.318Z,63.69
2019-01-19T15:10:43.364Z,63.00
2019-01-19T15:16:31.333Z,65.04
2019-01-19T15:22:23.870Z,64.99
2019-01-19T15:27:41.186Z,64.98
2019-01-19T15:33:31.652Z,64.94
2019-01-19T15:39:02.317Z,65.48
2019-01-19T15:44:42.710Z,66.68
2019-01-19T15:50:16.356Z,67.96
2019-01-19T15:55:46.309Z,68.57
2019-01-19T16:01:34.083Z,69.09
2019-01-19T16:06:50.053Z,70.30
2019-01-19T16:12:15.115Z,70.35
2019-01-19T16:17:47.505Z,70.65
2019-01-19T16:23:30.712Z,72.00
2019-01-19T16:28:54.111Z,71.57
2019-01-19T16:34:56.659Z,72.27
2019-01-19T16:40:34.175Z,71.46
2019-01-19T16:46:02.704Z,70.80
2019-01-19T16:51:36.101Z,71.44
2019-01-19T16:57:27.166Z,71.99
2019-01-19T17:03:25.932Z,72.66
2019-01-19T17:08:57.447Z,72.83
2019-01-19T17:14:35.228Z,73.03
2019-01-19T17:20:12.368Z,72.59
2019-01-19T17:25:54.339Z,72.44
2019-01-19T17:31:32.620Z,72.57
2019-01-19T17:37:09.962Z,73.69
2019-01-19T17:42:58.056Z,72.96
2019-01-19T17:48:43.236Z,73.32
2019-01-19T17:54:39.375Z,73.24
2019-01-19T18:00:19.583Z,73.11
2019-01-19T18:06:03.942Z,73.70
2019-01-19T18:11:47.320Z,73.93
2019-01-19T18:17:32.272Z,74.02
2019-01-19T18:22:56.200Z,73.55
2019-01-19T18:28:31.719Z,74.06
2019-01-19T18:33:55.651Z,73.78
2019-01-19T18:39:26.164Z,73.76
2019-01-19T18:45:15.443Z,74.02
2019-01-19T18:51:04.367Z,73.67
2019-01-19T18:56:47.713Z,73.70
2019-01-19T19:02:33.282Z,73.92
2019-01-19T19:08:07.529Z,73.96
2019-01-19T19:13:29.763Z,73.32
2019-01-19T19:18:55.705Z,73.37
2019-01-19T19:24:48.007Z,73.31
2019-01-19T19:30:32.552Z,73.93
2019-01-19T19:36:07.363Z,74.56
2019-01-19T19:41:49.447Z,74.99
2019-01-19T19:47:22.147Z,74.78
2019-01-19T19:52:31.029Z,74.94
2019-01-19T19:58:03.825Z,75.17
2019-01-19T20:03:16.613Z,75.91
2019-01-19T20:08:26.859Z,76.14
2019-01-19T20:13:36.131Z,75.63
2019-01-19T20:18:46.756Z,75.67
2019-01-19T20:23:59.272Z,75.85
2019-01-19T20:29:12.741Z,76.04
2019-01-19T20:34:24.556Z,76.14
2019-01-19T20:39:35.915Z,76.67
2019-01-19T20:44:46.662Z,77.24
2019-01-19T20:49:57.354Z,77.61
2019-01-19T20:55:07.133Z,77.93
2019-01-19T21:00:17.120Z,77.33
2019-01-19T21:05:25.462Z,77.86
2019-01-19T21:10:39.780Z,78.25
2019-01-19T21:15:48.186Z,78.51
2019-01-19T21:20:57.927Z,78.15
2019-01-19T21:26:07.619Z,78.43
2019-01-19T21:31:18.543Z,78.12
2019-01-19T21:36:27.556Z,77.85
2019-01-19T21:41:39.237Z,78.05
2019-01-19T21:46:47.225Z,77.58
2019-01-19T21:51:54.933Z,77.57
2019-01-19T21:57:01.436Z,77.91
2019-01-19T22:02:09.541Z,77.73
2019-01-19T22:07:18.306Z,77.78
2019-01-19T22:12:28.102Z,77.76
2019-01-19T22:17:39.786Z,77.91
2019-01-19T22:22:49.573Z,77.71
2019-01-19T22:27:59.430Z,77.83
2019-01-19T22:33:09.221Z,77.93
2019-01-19T22:38:24.265Z,78.41
2019-01-19T22:43:36.589Z,78.48
2019-01-19T22:48:48.257Z,78.56
2019-01-19T22:53:59.464Z,78.46
2019-01-19T22:59:11.094Z,78.57
2019-01-19T23:04:20.449Z,78.18
2019-01-19T23:09:28.386Z,78.29
2019-01-19T23:14:35.747Z,78.15
2019-01-19T23:19:45.585Z,78.75
2019-01-19T23:24:54.458Z,78.64
2019-01-19T23:30:02.211Z,79.28
2019-01-19T23:35:14.182Z,78.99
2019-01-19T23:40:24.602Z,79.11
2019-01-19T23:45:31.961Z,79.01
2019-01-19T23:50:44.635Z,79.20
2019-01-19T23:55:52.946Z,79.39
